Wednesday, October 22, 2014
09:41 UTC
  |  Log In   |  Register Free
Airport Search:

Live Oak County Airport
(8T6)

Live Oak County Airport Diagram
No Airport Diagram Available

FAA data valid effective September 18, 2014 - November 13, 2014 (unless otherwise noted).

 
 
 
 
 
 
 
 
 
 
 
 
 
 

Current Aviation Weather for Live Oak County Airport (8T6)

METAR data is unavailable for 8T6. The nearest METAR location is at KBEA (17.2 nm SE from 8T6).

The most recent METAR observation for KBEA was updated at: 0907
METAR Summary (Translated METAR)
KBEA
220855Z AUTO 03005KT 10SM CLR 19/15 A3000 RMK AO2 T01910154
(17.2 nm SE from 8T6)
KNOG
220856Z AUTO 03005KT 10SM CLR 19/18 A2999 RMK AO2 SLP136 T01940178 58004
(27.9 nm SE from 8T6)
TAF Summary (Translated TAF)
KALI
(39.3 nm SW from KBEA)
220527Z 2206/2306 04005KT P6SM SCT020 BKN150 TEMPO 2210/2213 3SM BR FM221500 08010KT P6SM SCT030 BKN150 TEMPO 2215/2217 BKN030 FM222100 09012G18KT P6SM SCT040 FM230200 09008KT P6SM SCT025
  Airport Weather Conditions for 8T6

Current weather conditions are
not available for 8T6


The nearest NOAA weather station
is at BEA, (17.2 nm SE from 8T6)
  
 Current Weather at BEA
66° F
Fair
Northeast winds at 5.8 mph
BEA NOAA Radar

Pressure: 30.00 in
Humidity: 79%
Wind: Northeast at 5.8 MPH (5 KT)
Dew Point: 59.7°F
Visibility: 10.00 mi


Airport Weather Forecast for 8T6

Translated METAR and TAF for KBEA
Translated METAR for KBEA (0936 UTC 22 October 2014)
found at http://aviationweather.gov/adds/metars/
 
METAR text: KBEA 220915Z AUTO 05006KT 10SM CLR 19/15 A2999 RMK AO2 T01890151
Conditions at: KBEA (BEEVILLE MUNI , TX, US) observed 0915 UTC 22 October 2014
Temperature: 18.9°C (66°F)
Dewpoint: 15.1°C (59°F) [RH = 79%]
Pressure (altimeter): 29.99 inches Hg (1015.7 mb)
Winds: from the NE (50 degrees) at 7 MPH (6 knots; 3.1 m/s)
Visibility: 10 or more miles (16+ km)
Ceiling: at least 12,000 feet AGL
Clouds: sky clear below 12,000 feet AGL
Weather: automated observation with no human augmentation;
there may or may not be significant weather present at this time
Translated TAF for KBEA

There is no translated TAF available for this airport

Find All Airport Services Find A Hotel Find A Rental Car Find A Golf Course Find A Restaurant $100 Hamburger



FBO's on the Field
FBO Company Facility Photos Services Transportation Aviation Fuel Prices: Prices include tax
Catering Weather Repair Courtesy Rental Type 100LL JetA JetA+ MOGAS 8087
 
Live Oak Co. Airport

This FBO has not yet been rated
FS:Avfuel
Last Updated: Oct-09
Login to update fuel prices
SS:
Contact Live Oak Co. AirportMore FBO Information
 
Add another FBO Facility Photos Catering Weather Repair Courtesy Rental Type 100LL JetA JetA+ MOGAS 8087
Services Transportation Aviation Fuel Prices: Prices include tax


model-print
model-print
model-print
model-print